sensor_id;sensor_type;location;lat;lon;timestamp;pressure;altitude;pressure_sealevel;temperature;humidity
76766;BME280;65707;52.362;6.588;2023-02-18T00:00:04;102106.88;;;10.92;81.42
76766;BME280;65707;52.362;6.588;2023-02-18T00:02:33;102107.31;;;11.07;81.45
76766;BME280;65707;52.362;6.588;2023-02-18T00:05:01;102100.94;;;11.08;80.69
76766;BME280;65707;52.362;6.588;2023-02-18T00:07:33;102085.25;;;11.03;80.35
76766;BME280;65707;52.362;6.588;2023-02-18T00:10:00;102108.75;;;11.01;81.51
76766;BME280;65707;52.362;6.588;2023-02-18T00:12:27;102113.25;;;10.91;82.46
76766;BME280;65707;52.362;6.588;2023-02-18T00:14:56;102101.81;;;11.08;82.31
76766;BME280;65707;52.362;6.588;2023-02-18T00:17:23;102095.44;;;11.09;81.94
76766;BME280;65707;52.362;6.588;2023-02-18T00:19:49;102087.78;;;10.95;82.07
76766;BME280;65707;52.362;6.588;2023-02-18T00:22:18;102095.47;;;11.00;82.58
76766;BME280;65707;52.362;6.588;2023-02-18T00:24:44;102101.22;;;11.14;81.88
76766;BME280;65707;52.362;6.588;2023-02-18T00:27:11;102083.00;;;11.08;82.44
76766;BME280;65707;52.362;6.588;2023-02-18T00:29:38;102086.53;;;10.99;82.22
76766;BME280;65707;52.362;6.588;2023-02-18T00:32:05;102090.91;;;11.00;82.86
76766;BME280;65707;52.362;6.588;2023-02-18T00:34:32;102079.06;;;10.93;82.87
76766;BME280;65707;52.362;6.588;2023-02-18T00:36:59;102067.16;;;10.95;83.45
76766;BME280;65707;52.362;6.588;2023-02-18T00:39:27;102075.38;;;10.94;82.87
76766;BME280;65707;52.362;6.588;2023-02-18T00:41:54;102080.75;;;11.04;83.23
76766;BME280;65707;52.362;6.588;2023-02-18T00:44:22;102076.22;;;11.04;83.00
76766;BME280;65707;52.362;6.588;2023-02-18T00:46:48;102074.06;;;10.98;82.80
76766;BME280;65707;52.362;6.588;2023-02-18T00:49:15;102070.13;;;10.92;82.64
76766;BME280;65707;52.362;6.588;2023-02-18T00:51:43;102083.00;;;10.98;82.78
76766;BME280;65707;52.362;6.588;2023-02-18T00:54:10;102075.50;;;10.92;83.21
76766;BME280;65707;52.362;6.588;2023-02-18T00:56:38;102071.97;;;11.02;82.87
76766;BME280;65707;52.362;6.588;2023-02-18T00:59:05;102066.44;;;10.93;83.15
76766;BME280;65707;52.362;6.588;2023-02-18T01:01:32;102066.59;;;10.92;83.02
76766;BME280;65707;52.362;6.588;2023-02-18T01:03:59;102059.09;;;10.95;83.29
76766;BME280;65707;52.362;6.588;2023-02-18T01:06:26;102056.84;;;10.91;83.03
76766;BME280;65707;52.362;6.588;2023-02-18T01:08:53;102056.84;;;10.91;83.30
76766;BME280;65707;52.362;6.588;2023-02-18T01:11:20;102051.34;;;10.92;82.87
76766;BME280;65707;52.362;6.588;2023-02-18T01:13:48;102051.19;;;10.94;82.77
76766;BME280;65707;52.362;6.588;2023-02-18T01:16:16;102042.84;;;10.97;83.16
76766;BME280;65707;52.362;6.588;2023-02-18T01:18:43;102020.41;;;10.79;83.35
76766;BME280;65707;52.362;6.588;2023-02-18T01:21:10;102038.19;;;10.99;82.94
76766;BME280;65707;52.362;6.588;2023-02-18T01:23:38;102024.06;;;10.97;82.72
76766;BME280;65707;52.362;6.588;2023-02-18T01:26:07;102032.53;;;10.92;83.41
76766;BME280;65707;52.362;6.588;2023-02-18T01:28:34;102036.75;;;10.95;83.25
76766;BME280;65707;52.362;6.588;2023-02-18T01:31:06;102039.44;;;10.95;83.55
76766;BME280;65707;52.362;6.588;2023-02-18T01:33:34;102031.69;;;10.92;83.23
76766;BME280;65707;52.362;6.588;2023-02-18T01:36:02;102024.91;;;10.88;83.65
76766;BME280;65707;52.362;6.588;2023-02-18T01:38:29;102019.81;;;10.94;83.21
76766;BME280;65707;52.362;6.588;2023-02-18T01:40:56;102013.59;;;11.04;83.20
76766;BME280;65707;52.362;6.588;2023-02-18T01:43:23;102005.81;;;11.10;82.71
76766;BME280;65707;52.362;6.588;2023-02-18T01:45:56;102010.19;;;11.02;83.58
76766;BME280;65707;52.362;6.588;2023-02-18T01:48:32;102006.09;;;11.07;83.37
76766;BME280;65707;52.362;6.588;2023-02-18T01:51:07;101998.88;;;11.08;83.35
76766;BME280;65707;52.362;6.588;2023-02-18T01:53:44;101999.72;;;11.18;83.36
76766;BME280;65707;52.362;6.588;2023-02-18T01:56:21;101993.78;;;11.14;82.86
76766;BME280;65707;52.362;6.588;2023-02-18T01:58:53;101990.97;;;11.06;83.57
76766;BME280;65707;52.362;6.588;2023-02-18T02:01:23;101990.94;;;11.16;83.45
76766;BME280;65707;52.362;6.588;2023-02-18T02:03:53;101981.63;;;11.10;83.37
76766;BME280;65707;52.362;6.588;2023-02-18T02:06:22;101990.81;;;11.08;83.45
76766;BME280;65707;52.362;6.588;2023-02-18T02:08:54;101988.41;;;11.14;83.98
76766;BME280;65707;52.362;6.588;2023-02-18T02:11:34;101974.81;;;11.25;83.48
76766;BME280;65707;52.362;6.588;2023-02-18T02:14:28;101968.34;;;11.18;83.28
76766;BME280;65707;52.362;6.588;2023-02-18T02:17:17;101951.94;;;11.12;83.57
76766;BME280;65707;52.362;6.588;2023-02-18T02:24:05;101927.66;;;10.94;84.47
76766;BME280;65707;52.362;6.588;2023-02-18T02:27:13;101925.53;;;11.07;84.20
76766;BME280;65707;52.362;6.588;2023-02-18T02:30:32;101925.41;;;10.99;84.55
76766;BME280;65707;52.362;6.588;2023-02-18T02:33:40;101923.69;;;10.98;84.11
76766;BME280;65707;52.362;6.588;2023-02-18T02:36:27;101922.25;;;11.13;83.94
76766;BME280;65707;52.362;6.588;2023-02-18T02:39:07;101922.84;;;11.07;84.23
76766;BME280;65707;52.362;6.588;2023-02-18T02:41:51;101914.75;;;11.17;83.87
76766;BME280;65707;52.362;6.588;2023-02-18T02:44:33;101918.97;;;11.19;83.69
76766;BME280;65707;52.362;6.588;2023-02-18T02:47:07;101917.16;;;11.10;83.94
76766;BME280;65707;52.362;6.588;2023-02-18T02:49:45;101920.81;;;11.19;84.14
76766;BME280;65707;52.362;6.588;2023-02-18T02:52:22;101906.41;;;11.20;83.33
76766;BME280;65707;52.362;6.588;2023-02-18T02:54:56;101911.22;;;11.16;84.16
76766;BME280;65707;52.362;6.588;2023-02-18T02:57:45;101899.28;;;11.28;83.44
76766;BME280;65707;52.362;6.588;2023-02-18T03:00:17;101886.00;;;11.27;83.68
76766;BME280;65707;52.362;6.588;2023-02-18T03:03:13;101888.56;;;11.19;84.17
76766;BME280;65707;52.362;6.588;2023-02-18T03:06:08;101875.47;;;11.06;84.22
76766;BME280;65707;52.362;6.588;2023-02-18T03:08:56;101877.16;;;11.17;84.48
76766;BME280;65707;52.362;6.588;2023-02-18T03:11:42;101867.94;;;11.19;84.02
76766;BME280;65707;52.362;6.588;2023-02-18T03:14:26;101862.16;;;11.14;83.92
76766;BME280;65707;52.362;6.588;2023-02-18T03:16:59;101853.13;;;11.15;84.11
76766;BME280;65707;52.362;6.588;2023-02-18T03:19:34;101847.34;;;11.10;84.40
76766;BME280;65707;52.362;6.588;2023-02-18T03:22:08;101843.94;;;11.08;84.00
76766;BME280;65707;52.362;6.588;2023-02-18T03:24:41;101843.63;;;11.11;83.75
76766;BME280;65707;52.362;6.588;2023-02-18T03:27:14;101840.84;;;11.03;84.31
76766;BME280;65707;52.362;6.588;2023-02-18T03:29:49;101846.31;;;11.11;83.83
76766;BME280;65707;52.362;6.588;2023-02-18T03:32:22;101845.53;;;11.01;84.23
76766;BME280;65707;52.362;6.588;2023-02-18T03:34:54;101841.25;;;11.08;84.06
76766;BME280;65707;52.362;6.588;2023-02-18T03:37:27;101834.47;;;11.14;83.46
76766;BME280;65707;52.362;6.588;2023-02-18T03:39:58;101833.78;;;11.02;83.74
76766;BME280;65707;52.362;6.588;2023-02-18T03:42:27;101822.47;;;10.98;83.78
76766;BME280;65707;52.362;6.588;2023-02-18T03:44:55;101829.13;;;11.04;83.92
76766;BME280;65707;52.362;6.588;2023-02-18T03:47:22;101824.13;;;11.09;83.61
76766;BME280;65707;52.362;6.588;2023-02-18T03:49:49;101820.31;;;11.12;83.45
76766;BME280;65707;52.362;6.588;2023-02-18T03:52:16;101816.06;;;11.09;82.98
76766;BME280;65707;52.362;6.588;2023-02-18T03:54:43;101804.25;;;11.02;83.66
76766;BME280;65707;52.362;6.588;2023-02-18T03:57:11;101802.16;;;10.96;83.56
76766;BME280;65707;52.362;6.588;2023-02-18T03:59:38;101793.84;;;10.89;83.91
76766;BME280;65707;52.362;6.588;2023-02-18T04:02:05;101790.81;;;11.02;83.96
76766;BME280;65707;52.362;6.588;2023-02-18T04:04:32;101789.22;;;11.09;83.54
76766;BME280;65707;52.362;6.588;2023-02-18T04:06:58;101782.00;;;11.10;83.62
76766;BME280;65707;52.362;6.588;2023-02-18T04:09:25;101779.16;;;11.11;84.25
76766;BME280;65707;52.362;6.588;2023-02-18T04:11:55;101779.16;;;11.11;84.11
76766;BME280;65707;52.362;6.588;2023-02-18T04:14:23;101780.19;;;11.10;84.43
76766;BME280;65707;52.362;6.588;2023-02-18T04:16:50;101777.19;;;11.13;84.09
76766;BME280;65707;52.362;6.588;2023-02-18T04:19:17;101764.97;;;11.01;84.80
76766;BME280;65707;52.362;6.588;2023-02-18T04:21:43;101767.09;;;10.98;85.33
76766;BME280;65707;52.362;6.588;2023-02-18T04:24:10;101765.69;;;10.93;85.98
76766;BME280;65707;52.362;6.588;2023-02-18T04:26:37;101749.56;;;10.93;86.53
76766;BME280;65707;52.362;6.588;2023-02-18T04:29:04;101734.72;;;10.99;85.98
76766;BME280;65707;52.362;6.588;2023-02-18T04:31:32;101747.53;;;11.05;86.11
76766;BME280;65707;52.362;6.588;2023-02-18T04:33:59;101735.13;;;11.04;86.74
76766;BME280;65707;52.362;6.588;2023-02-18T04:36:26;101747.25;;;11.08;86.59
76766;BME280;65707;52.362;6.588;2023-02-18T04:38:53;101749.81;;;11.00;87.03
76766;BME280;65707;52.362;6.588;2023-02-18T04:41:19;101737.69;;;10.96;87.03
76766;BME280;65707;52.362;6.588;2023-02-18T04:43:46;101734.81;;;11.07;87.09
76766;BME280;65707;52.362;6.588;2023-02-18T04:46:13;101743.69;;;11.08;86.70
76766;BME280;65707;52.362;6.588;2023-02-18T04:48:41;101737.59;;;11.15;87.02
76766;BME280;65707;52.362;6.588;2023-02-18T04:51:09;101729.97;;;11.11;86.81
76766;BME280;65707;52.362;6.588;2023-02-18T04:53:36;101702.88;;;11.04;87.18
76766;BME280;65707;52.362;6.588;2023-02-18T04:56:03;101716.03;;;11.07;87.41
76766;BME280;65707;52.362;6.588;2023-02-18T04:58:30;101699.91;;;11.07;88.19
76766;BME280;65707;52.362;6.588;2023-02-18T05:00:58;101691.00;;;11.07;87.78
76766;BME280;65707;52.362;6.588;2023-02-18T05:03:25;101680.25;;;11.07;88.31
76766;BME280;65707;52.362;6.588;2023-02-18T05:05:54;101680.44;;;11.23;87.80
76766;BME280;65707;52.362;6.588;2023-02-18T05:08:21;101676.56;;;11.25;87.11
76766;BME280;65707;52.362;6.588;2023-02-18T05:10:48;101672.22;;;11.24;87.42
76766;BME280;65707;52.362;6.588;2023-02-18T05:13:16;101662.69;;;11.30;87.33
76766;BME280;65707;52.362;6.588;2023-02-18T05:15:42;101658.31;;;11.29;87.37
76766;BME280;65707;52.362;6.588;2023-02-18T05:18:09;101658.88;;;11.32;87.73
76766;BME280;65707;52.362;6.588;2023-02-18T05:20:39;101653.19;;;11.35;87.41
76766;BME280;65707;52.362;6.588;2023-02-18T05:23:07;101652.94;;;11.29;87.97
76766;BME280;65707;52.362;6.588;2023-02-18T05:25:34;101647.72;;;11.27;88.23
76766;BME280;65707;52.362;6.588;2023-02-18T05:28:00;101658.78;;;11.24;88.56
76766;BME280;65707;52.362;6.588;2023-02-18T05:30:27;101638.00;;;11.26;88.35
76766;BME280;65707;52.362;6.588;2023-02-18T05:32:54;101637.75;;;11.37;88.19
76766;BME280;65707;52.362;6.588;2023-02-18T05:35:21;101629.69;;;11.37;88.01
76766;BME280;65707;52.362;6.588;2023-02-18T05:37:53;101626.84;;;11.39;88.11
76766;BME280;65707;52.362;6.588;2023-02-18T05:40:21;101625.44;;;11.35;88.38
76766;BME280;65707;52.362;6.588;2023-02-18T05:42:48;101622.47;;;11.38;88.29
76766;BME280;65707;52.362;6.588;2023-02-18T05:45:18;101614.00;;;11.50;88.31
76766;BME280;65707;52.362;6.588;2023-02-18T05:47:44;101599.19;;;11.46;88.14
76766;BME280;65707;52.362;6.588;2023-02-18T05:50:11;101606.19;;;11.39;88.24
76766;BME280;65707;52.362;6.588;2023-02-18T05:52:38;101612.88;;;11.53;88.07
76766;BME280;65707;52.362;6.588;2023-02-18T05:55:05;101604.78;;;11.53;87.92
76766;BME280;65707;52.362;6.588;2023-02-18T05:57:34;101595.50;;;11.47;88.24
76766;BME280;65707;52.362;6.588;2023-02-18T06:00:01;101599.59;;;11.51;88.38
76766;BME280;65707;52.362;6.588;2023-02-18T06:02:29;101603.94;;;11.52;88.03
76766;BME280;65707;52.362;6.588;2023-02-18T06:04:55;101611.78;;;11.46;88.06
76766;BME280;65707;52.362;6.588;2023-02-18T06:07:22;101605.31;;;11.56;88.04
76766;BME280;65707;52.362;6.588;2023-02-18T06:09:49;101599.59;;;11.51;88.02
76766;BME280;65707;52.362;6.588;2023-02-18T06:12:16;101599.50;;;11.61;88.01
76766;BME280;65707;52.362;6.588;2023-02-18T06:14:44;101578.09;;;11.51;87.80
76766;BME280;65707;52.362;6.588;2023-02-18T06:17:13;101590.34;;;11.54;88.22
76766;BME280;65707;52.362;6.588;2023-02-18T06:19:40;101597.09;;;11.58;88.15
76766;BME280;65707;52.362;6.588;2023-02-18T06:22:07;101591.53;;;11.51;87.81
76766;BME280;65707;52.362;6.588;2023-02-18T06:24:34;101603.09;;;11.52;87.92
76766;BME280;65707;52.362;6.588;2023-02-18T06:27:01;101607.25;;;11.46;88.37
76766;BME280;65707;52.362;6.588;2023-02-18T06:29:28;101599.91;;;11.48;88.26
76766;BME280;65707;52.362;6.588;2023-02-18T06:31:57;101605.28;;;11.48;87.78
76766;BME280;65707;52.362;6.588;2023-02-18T06:34:25;101611.84;;;11.54;87.43
76766;BME280;65707;52.362;6.588;2023-02-18T06:36:52;101601.88;;;11.46;87.60
76766;BME280;65707;52.362;6.588;2023-02-18T06:39:19;101604.19;;;11.41;87.88
76766;BME280;65707;52.362;6.588;2023-02-18T06:41:46;101592.16;;;11.28;88.29
76766;BME280;65707;52.362;6.588;2023-02-18T06:44:13;101608.34;;;11.36;88.30
76766;BME280;65707;52.362;6.588;2023-02-18T06:46:41;101595.75;;;11.36;88.02
76766;BME280;65707;52.362;6.588;2023-02-18T06:49:11;101590.69;;;11.33;88.21
76766;BME280;65707;52.362;6.588;2023-02-18T06:51:38;101592.00;;;11.29;88.28
76766;BME280;65707;52.362;6.588;2023-02-18T06:54:05;101581.00;;;11.40;88.21
76766;BME280;65707;52.362;6.588;2023-02-18T06:56:31;101590.75;;;11.41;87.90
76766;BME280;65707;52.362;6.588;2023-02-18T06:58:58;101577.25;;;11.33;88.10
76766;BME280;65707;52.362;6.588;2023-02-18T07:01:25;101588.69;;;11.35;88.08
76766;BME280;65707;52.362;6.588;2023-02-18T07:03:52;101582.16;;;11.38;88.13
76766;BME280;65707;52.362;6.588;2023-02-18T07:06:20;101578.25;;;11.32;88.34
76766;BME280;65707;52.362;6.588;2023-02-18T07:08:47;101577.63;;;11.38;88.09
76766;BME280;65707;52.362;6.588;2023-02-18T07:11:14;101563.59;;;11.27;87.96
76766;BME280;65707;52.362;6.588;2023-02-18T07:13:41;101580.31;;;11.38;88.33
76766;BME280;65707;52.362;6.588;2023-02-18T07:16:08;101568.97;;;11.27;88.24
76766;BME280;65707;52.362;6.588;2023-02-18T07:18:38;101572.88;;;11.32;88.44
76766;BME280;65707;52.362;6.588;2023-02-18T07:21:04;101576.34;;;11.25;88.39
76766;BME280;65707;52.362;6.588;2023-02-18T07:23:33;101573.81;;;11.23;88.30
76766;BME280;65707;52.362;6.588;2023-02-18T07:26:04;101576.03;;;11.28;88.60
76766;BME280;65707;52.362;6.588;2023-02-18T07:28:32;101577.41;;;11.32;88.40
76766;BME280;65707;52.362;6.588;2023-02-18T07:30:59;101586.97;;;11.34;88.10
76766;BME280;65707;52.362;6.588;2023-02-18T07:33:26;101577.72;;;11.29;88.31
76766;BME280;65707;52.362;6.588;2023-02-18T07:35:53;101563.97;;;11.32;88.01
76766;BME280;65707;52.362;6.588;2023-02-18T07:38:20;101575.94;;;11.37;87.51
76766;BME280;65707;52.362;6.588;2023-02-18T07:40:49;101580.94;;;11.32;87.75
76766;BME280;65707;52.362;6.588;2023-02-18T07:43:16;101583.00;;;11.38;87.72
76766;BME280;65707;52.362;6.588;2023-02-18T07:45:44;101572.88;;;11.32;87.42
76766;BME280;65707;52.362;6.588;2023-02-18T07:48:11;101587.28;;;11.31;87.62
76766;BME280;65707;52.362;6.588;2023-02-18T07:50:38;101586.38;;;11.40;87.10
76766;BME280;65707;52.362;6.588;2023-02-18T07:53:06;101590.06;;;11.39;87.38
76766;BME280;65707;52.362;6.588;2023-02-18T07:55:34;101572.72;;;11.34;87.25
76766;BME280;65707;52.362;6.588;2023-02-18T07:58:20;101579.31;;;11.39;87.03
76766;BME280;65707;52.362;6.588;2023-02-18T08:00:49;101583.63;;;11.32;87.06
76766;BME280;65707;52.362;6.588;2023-02-18T08:03:18;101566.44;;;11.25;86.93
76766;BME280;65707;52.362;6.588;2023-02-18T08:05:47;101579.94;;;11.33;87.71
76766;BME280;65707;52.362;6.588;2023-02-18T08:08:17;101576.53;;;11.31;87.39
76766;BME280;65707;52.362;6.588;2023-02-18T08:10:46;101572.81;;;11.24;87.23
76766;BME280;65707;52.362;6.588;2023-02-18T08:13:14;101573.56;;;11.34;87.58
76766;BME280;65707;52.362;6.588;2023-02-18T08:15:43;101574.25;;;11.36;87.38
76766;BME280;65707;52.362;6.588;2023-02-18T08:18:14;101565.19;;;11.37;87.01
76766;BME280;65707;52.362;6.588;2023-02-18T08:20:42;101582.94;;;11.30;87.30
76766;BME280;65707;52.362;6.588;2023-02-18T08:23:12;101564.97;;;11.31;87.44
76766;BME280;65707;52.362;6.588;2023-02-18T08:25:44;101563.91;;;11.24;87.33
76766;BME280;65707;52.362;6.588;2023-02-18T08:28:12;101571.97;;;11.24;87.49
76766;BME280;65707;52.362;6.588;2023-02-18T08:30:44;101577.56;;;11.30;87.62
76766;BME280;65707;52.362;6.588;2023-02-18T08:33:12;101567.59;;;11.23;87.57
76766;BME280;65707;52.362;6.588;2023-02-18T08:35:39;101582.53;;;11.25;87.84
76766;BME280;65707;52.362;6.588;2023-02-18T08:38:06;101586.69;;;11.37;87.49
76766;BME280;65707;52.362;6.588;2023-02-18T08:40:33;101591.69;;;11.32;86.70
76766;BME280;65707;52.362;6.588;2023-02-18T08:43:00;101588.78;;;11.26;87.58
76766;BME280;65707;52.362;6.588;2023-02-18T08:45:27;101577.63;;;11.38;87.10
76766;BME280;65707;52.362;6.588;2023-02-18T08:47:55;101581.38;;;11.45;86.89
76766;BME280;65707;52.362;6.588;2023-02-18T08:50:22;101564.56;;;11.43;86.59
76766;BME280;65707;52.362;6.588;2023-02-18T08:52:50;101562.88;;;11.42;86.49
76766;BME280;65707;52.362;6.588;2023-02-18T08:55:20;101559.81;;;11.37;86.35
76766;BME280;65707;52.362;6.588;2023-02-18T08:57:48;101573.63;;;11.42;86.71
76766;BME280;65707;52.362;6.588;2023-02-18T09:00:16;101588.38;;;11.38;86.69
76766;BME280;65707;52.362;6.588;2023-02-18T09:02:44;101581.31;;;11.37;86.52
76766;BME280;65707;52.362;6.588;2023-02-18T09:05:13;101579.94;;;11.33;86.51
76766;BME280;65707;52.362;6.588;2023-02-18T09:07:40;101573.25;;;11.37;85.99
76766;BME280;65707;52.362;6.588;2023-02-18T09:10:07;101569.03;;;11.35;85.69
76766;BME280;65707;52.362;6.588;2023-02-18T09:12:37;101573.69;;;11.33;85.71
76766;BME280;65707;52.362;6.588;2023-02-18T09:15:04;101582.84;;;11.22;85.72
76766;BME280;65707;52.362;6.588;2023-02-18T09:17:32;101591.31;;;11.27;86.21
76766;BME280;65707;52.362;6.588;2023-02-18T09:19:59;101583.72;;;11.23;85.79
76766;BME280;65707;52.362;6.588;2023-02-18T09:22:27;101591.78;;;11.23;85.80
76766;BME280;65707;52.362;6.588;2023-02-18T09:24:54;101594.06;;;11.18;86.12
76766;BME280;65707;52.362;6.588;2023-02-18T09:27:21;101600.22;;;11.10;86.39
76766;BME280;65707;52.362;6.588;2023-02-18T09:29:48;101591.47;;;11.08;87.28
76766;BME280;65707;52.362;6.588;2023-02-18T09:32:15;101606.56;;;11.09;86.93
76766;BME280;65707;52.362;6.588;2023-02-18T09:34:42;101588.69;;;11.00;87.31
76766;BME280;65707;52.362;6.588;2023-02-18T09:37:09;101606.72;;;11.08;87.71
76766;BME280;65707;52.362;6.588;2023-02-18T09:39:38;101610.47;;;10.97;87.63
76766;BME280;65707;52.362;6.588;2023-02-18T09:42:07;101593.50;;;10.96;87.49
76766;BME280;65707;52.362;6.588;2023-02-18T09:44:42;101612.91;;;10.73;87.18
76766;BME280;65707;52.362;6.588;2023-02-18T09:47:14;101595.97;;;10.72;88.09
76766;BME280;65707;52.362;6.588;2023-02-18T09:49:47;101595.34;;;10.78;87.65
76766;BME280;65707;52.362;6.588;2023-02-18T09:52:21;101581.84;;;10.70;87.76
76766;BME280;65707;52.362;6.588;2023-02-18T09:54:55;101597.09;;;10.70;87.30
76766;BME280;65707;52.362;6.588;2023-02-18T09:57:25;101594.56;;;10.68;88.03
76766;BME280;65707;52.362;6.588;2023-02-18T10:00:00;101607.88;;;10.60;88.06
76766;BME280;65707;52.362;6.588;2023-02-18T10:02:31;101603.91;;;10.64;88.05
76766;BME280;65707;52.362;6.588;2023-02-18T10:05:01;101601.94;;;10.66;87.31
76766;BME280;65707;52.362;6.588;2023-02-18T10:07:31;101618.63;;;10.60;87.51
76766;BME280;65707;52.362;6.588;2023-02-18T10:10:10;101623.16;;;10.60;87.21
76766;BME280;65707;52.362;6.588;2023-02-18T10:12:44;101623.47;;;10.57;87.98
76766;BME280;65707;52.362;6.588;2023-02-18T10:15:20;101598.66;;;10.45;87.50
76766;BME280;65707;52.362;6.588;2023-02-18T10:17:54;101617.94;;;10.58;87.92
76766;BME280;65707;52.362;6.588;2023-02-18T10:20:24;101615.41;;;10.57;87.75
76766;BME280;65707;52.362;6.588;2023-02-18T10:22:58;101605.50;;;10.57;88.51
76766;BME280;65707;52.362;6.588;2023-02-18T10:25:31;101608.84;;;10.69;87.86
76766;BME280;65707;52.362;6.588;2023-02-18T10:28:04;101626.25;;;10.65;87.70
76766;BME280;65707;52.362;6.588;2023-02-18T10:30:35;101638.81;;;10.64;87.98
76766;BME280;65707;52.362;6.588;2023-02-18T10:33:19;101623.50;;;10.47;88.05
76766;BME280;65707;52.362;6.588;2023-02-18T10:36:05;101648.59;;;10.56;88.00
76766;BME280;65707;52.362;6.588;2023-02-18T10:38:52;101611.16;;;10.54;88.95
76766;BME280;65707;52.362;6.588;2023-02-18T10:41:36;101642.88;;;10.68;87.94
76766;BME280;65707;52.362;6.588;2023-02-18T10:44:17;101645.41;;;10.70;88.73
76766;BME280;65707;52.362;6.588;2023-02-18T10:47:02;101639.13;;;10.61;88.13
76766;BME280;65707;52.362;6.588;2023-02-18T10:49:56;101642.34;;;10.65;88.13
76766;BME280;65707;52.362;6.588;2023-02-18T10:52:27;101643.63;;;10.61;88.36
76766;BME280;65707;52.362;6.588;2023-02-18T10:55:01;101643.03;;;10.67;88.14
76766;BME280;65707;52.362;6.588;2023-02-18T10:57:31;101638.97;;;10.63;88.66
76766;BME280;65707;52.362;6.588;2023-02-18T11:00:02;101626.81;;;10.59;88.20
76766;BME280;65707;52.362;6.588;2023-02-18T11:02:41;101639.22;;;10.69;88.40
76766;BME280;65707;52.362;6.588;2023-02-18T11:05:18;101629.34;;;10.87;87.86
76766;BME280;65707;52.362;6.588;2023-02-18T11:07:50;101638.03;;;10.99;87.73
76766;BME280;65707;52.362;6.588;2023-02-18T11:10:23;101624.38;;;11.10;87.23
76766;BME280;65707;52.362;6.588;2023-02-18T11:12:57;101630.75;;;11.27;87.01
76766;BME280;65707;52.362;6.588;2023-02-18T11:15:27;101622.53;;;11.46;86.03
76766;BME280;65707;52.362;6.588;2023-02-18T11:17:56;101627.81;;;11.55;85.20
76766;BME280;65707;52.362;6.588;2023-02-18T11:20:30;101622.69;;;11.44;84.82
76766;BME280;65707;52.362;6.588;2023-02-18T11:23:15;101610.25;;;11.43;85.16
76766;BME280;65707;52.362;6.588;2023-02-18T11:25:55;101613.69;;;11.53;84.52
76766;BME280;65707;52.362;6.588;2023-02-18T11:28:40;101614.31;;;11.47;85.04
76766;BME280;65707;52.362;6.588;2023-02-18T11:31:14;101608.84;;;11.57;84.79
76766;BME280;65707;52.362;6.588;2023-02-18T11:33:49;101609.38;;;11.60;84.74
76766;BME280;65707;52.362;6.588;2023-02-18T11:36:21;101602.13;;;11.53;84.74
76766;BME280;65707;52.362;6.588;2023-02-18T11:38:53;101628.69;;;11.56;85.29
76766;BME280;65707;52.362;6.588;2023-02-18T11:41:29;101618.00;;;11.46;84.13
76766;BME280;65707;52.362;6.588;2023-02-18T11:44:02;101619.84;;;11.46;85.60
76766;BME280;65707;52.362;6.588;2023-02-18T11:46:33;101626.78;;;11.48;85.49
76766;BME280;65707;52.362;6.588;2023-02-18T11:49:10;101618.94;;;11.37;86.16
76766;BME280;65707;52.362;6.588;2023-02-18T11:51:48;101631.44;;;11.46;85.85
76766;BME280;65707;52.362;6.588;2023-02-18T11:54:24;101630.91;;;11.43;85.76
76766;BME280;65707;52.362;6.588;2023-02-18T11:56:56;101643.19;;;11.45;85.49
76766;BME280;65707;52.362;6.588;2023-02-18T11:59:29;101626.38;;;11.43;86.41
76766;BME280;65707;52.362;6.588;2023-02-18T12:02:04;101627.81;;;11.55;85.91
76766;BME280;65707;52.362;6.588;2023-02-18T12:04:52;101636.19;;;11.52;84.63
76766;BME280;65707;52.362;6.588;2023-02-18T12:07:29;101630.91;;;11.60;84.55
76766;BME280;65707;52.362;6.588;2023-02-18T12:10:11;101641.91;;;11.67;84.04
76766;BME280;65707;52.362;6.588;2023-02-18T12:12:47;101619.38;;;11.68;83.86
76766;BME280;65707;52.362;6.588;2023-02-18T12:15:24;101631.38;;;11.73;83.34
76766;BME280;65707;52.362;6.588;2023-02-18T12:18:25;101622.28;;;11.74;82.96
76766;BME280;65707;52.362;6.588;2023-02-18T12:21:24;101620.97;;;11.78;83.24
76766;BME280;65707;52.362;6.588;2023-02-18T12:24:11;101610.69;;;11.99;82.85
76766;BME280;65707;52.362;6.588;2023-02-18T12:26:57;101620.44;;;12.00;82.25
76766;BME280;65707;52.362;6.588;2023-02-18T12:29:48;101634.16;;;12.15;82.20
76766;BME280;65707;52.362;6.588;2023-02-18T12:32:45;101621.63;;;12.23;81.78
76766;BME280;65707;52.362;6.588;2023-02-18T12:35:36;101625.13;;;12.24;81.58
76766;BME280;65707;52.362;6.588;2023-02-18T12:41:32;101644.00;;;12.32;81.84
76766;BME280;65707;52.362;6.588;2023-02-18T12:44:21;101639.47;;;12.32;81.41
76766;BME280;65707;52.362;6.588;2023-02-18T12:47:13;101634.63;;;12.36;81.29
76766;BME280;65707;52.362;6.588;2023-02-18T12:50:08;101641.94;;;12.52;82.72
76766;BME280;65707;52.362;6.588;2023-02-18T12:52:58;101635.56;;;12.61;80.27
76766;BME280;65707;52.362;6.588;2023-02-18T12:55:44;101639.31;;;12.68;80.31
76766;BME280;65707;52.362;6.588;2023-02-18T12:58:34;101634.06;;;12.66;80.46
76766;BME280;65707;52.362;6.588;2023-02-18T13:01:24;101622.16;;;12.77;80.42
76766;BME280;65707;52.362;6.588;2023-02-18T13:04:11;101625.25;;;12.98;79.40
76766;BME280;65707;52.362;6.588;2023-02-18T13:07:41;101636.41;;;13.03;79.17
76766;BME280;65707;52.362;6.588;2023-02-18T13:10:33;101634.56;;;13.03;78.31
76766;BME280;65707;52.362;6.588;2023-02-18T13:13:21;101641.78;;;13.03;78.69
76766;BME280;65707;52.362;6.588;2023-02-18T13:15:54;101641.09;;;13.01;79.02
76766;BME280;65707;52.362;6.588;2023-02-18T13:18:27;101643.00;;;13.08;78.16
76766;BME280;65707;52.362;6.588;2023-02-18T13:21:02;101645.34;;;13.03;78.27
76766;BME280;65707;52.362;6.588;2023-02-18T13:23:34;101645.00;;;13.06;78.06